• Join FlightAware (Why Join?)
  • Login
  • US Flag 
01:27AM EDT


 

Airport Tracker/Info


-or-


 

Live Flight TrackerFlight Track Log ✈ N143DE ✈ 02-Jul-2013 ✈ KEHO - KPDK

Flight Track Log - Related Links

Times and Time Zones

All times are in EDT time to prevent confusion due to time zone crossing. See the N143DE flight status page for this flight to view local times or setup timezone preferences in your user account.

Time Position Orientation Groundspeed Altitude Reporting Facility
EDT Latitude Longitude Course Direction KTS MPH feet Rate Location/Type
06:20PM 35.2228 -81.6158 146° Southeast 147 169 2,300  Level Atlanta Center
06:21PM 35.2017 -81.5986 146° Southeast 275 316 3,200 1,800 Climbing Atlanta Center
06:23PM 35.1433 -81.6106 190° South 116 133 7,000 1,740 Climbing Atlanta Center
06:24PM 35.1319 -81.6692 257° West 150 173 8,500 1,320 Climbing Atlanta Center
06:25PM 35.1164 -81.7281 252° West 181 208 9,700 1,200 Climbing Atlanta Center
06:26PM 35.1011 -81.7919 254° West 202 232 10,900 1,080 Climbing Atlanta Center
06:27PM 35.0833 -81.8586 252° West 208 239 11,900 900 Climbing Atlanta Center
06:28PM 35.0617 -81.9328 250° West 208 239 12,800 900 Climbing Atlanta Center
06:29PM 35.0461 -81.9989 254° West 208 239 13,700 600 Climbing Atlanta Center
06:30PM 35.0264 -82.0706 251° West 208 239 14,000 120 Climbing Atlanta Center
06:31PM 35.0089 -82.1444 254° West 215 247 14,000  Level Atlanta Center
06:32PM 34.9892 -82.2211 253° West 226 260 14,000  Level Atlanta Center
06:33PM 34.9631 -82.2950 247° West 231 266 14,000  Level Atlanta Center
06:34PM 34.9456 -82.3764 255° West 243 280 14,000  Level Atlanta Center
06:35PM 34.9236 -82.4531 251° West 243 280 14,000  Level Atlanta Center
06:36PM 34.9036 -82.5292 252° West 249 287 14,000  Level Atlanta Center
06:37PM 34.8836 -82.6056 252° West 249 287 14,000  Level Atlanta Center
06:38PM 34.8636 -82.6744 251° West 249 287 14,000  Level Atlanta Center
06:39PM 34.8436 -82.7531 253° West 249 287 14,000 -240 Level Atlanta Center
06:40PM 34.8233 -82.8294 252° West 242 278 13,600 -540 Descending Atlanta Center
06:41PM 34.8056 -82.9181 256° West 247 284 13,000 -660 Descending Atlanta Center
06:42PM 34.7833 -82.9942 250° West 252 290 12,300 -720 Descending Atlanta Center
06:43PM 34.7631 -83.0728 253° West 246 283 11,600 -600 Descending Atlanta Center
06:44PM 34.7428 -83.1514 253° West 246 283 11,100 -300 Descending Atlanta Center
06:45PM 34.7225 -83.2250 251° West 246 283 11,100 -60 Level Atlanta Center
06:46PM 34.6997 -83.2808 244° Southwest 230 265 11,000 -60 Descending Atlanta Center
06:47PM 34.6772 -83.3442 247° West 224 258 11,000  Level Atlanta Center
06:48PM 34.6506 -83.4125 245° Southwest 207 238 11,000  Level Atlanta Center
06:49PM 34.6214 -83.4733 240° Southwest 207 238 11,000  Level Atlanta Center
06:50PM 34.5925 -83.5367 241° Southwest 212 244 11,100  Climbing Atlanta Center
06:51PM 34.5678 -83.5947 243° Southwest 212 244 11,100 -60 Level Atlanta Center
06:52PM 34.5344 -83.6556 236° Southwest 217 250 11,000 -480 Descending Atlanta Center
06:53PM 34.5014 -83.7136 235° Southwest 223 257 10,200 -900 Descending Atlanta Center
06:54PM 34.4661 -83.7817 238° Southwest 223 257 9,300 -900 Descending Atlanta Center
06:55PM 34.4328 -83.8447 237° Southwest 229 264 8,500 -660 Descending Atlanta Center
06:56PM 34.4017 -83.9078 239° Southwest 222 255 8,000 -300 Descending Atlanta Center
06:57PM 34.3725 -83.9658 239° Southwest 210 242 8,000  Level Atlanta Center
06:58PM 34.3431 -84.0236 238° Southwest 203 234 8,000  Level Atlanta Center
06:59PM 34.3161 -84.0764 238° Southwest 198 228 8,000  Level Atlanta Center
07:00PM 34.2681 -84.1017 203° Southwest 181 208 8,000 -300 Level Atlanta Center
07:01PM 34.2181 -84.1267 202° Southwest 193 222 7,500 -1,200 Descending Atlanta Center
07:02PM 34.1658 -84.1542 204° Southwest 204 235 5,700 -1,920 Descending Atlanta Center
07:03PM 34.1094 -84.1869 206° Southwest 218 251 3,700 -1,500 Descending Atlanta Center
07:04PM 34.0667 -84.2000 194° South 178 205 3,000 -480 Descending Atlanta TRACON
07:05PM 34.0333 -84.2167 203° Southwest 161 185 3,000  Level Atlanta TRACON
07:06PM 34.0000 -84.2500 220° Southwest 149 171 3,000 -180 Level Atlanta TRACON
07:07PM 33.9667 -84.2667 203° Southwest 143 165 2,700 -540 Descending Atlanta TRACON
07:08PM 33.9333 -84.2833 203° Southwest 116 133 2,000 -600 Descending Atlanta TRACON
07:09PM 33.9000 -84.2833 180° South 104 120 1,500 -540 Descending Atlanta TRACON
07:11PM 33.8667 -84.3000 209° Southwest  Level FlightAware Approximate
07:18PM 33.8756 -84.3020 209° Southwest  Level Estimated